METAR Data
IDs: Format: Raw Decoded Include TAF

Data at: 0523 UTC 26 Sep 2018

KFIT 260508Z AUTO 00000KT 10SM SCT014 BKN050 BKN110 15/14 A3012 RMK AO2 T01500144 TSNO
KFIT 260457Z AUTO 00000KT 10SM BKN012 BKN041 BKN100 15/15 A3012 RMK AO2 CIG 004V016 T01500150
KFIT 260452Z AUTO 00000KT 10SM FEW004 SCT015 BKN041 15/15 A3012 RMK AO2 SLP201 T01500150 401560056
KFIT 260352Z AUTO 00000KT 8SM FEW004 SCT031 OVC048 16/15 A3014 RMK AO2 SLP207 T01560150
KFIT 260347Z AUTO 00000KT 8SM FEW004 OVC048 16/15 A3014 RMK AO2
KFIT 260324Z AUTO 00000KT 8SM BKN004 BKN036 OVC055 16/15 A3015 RMK AO2 CIG 002V006 T01560150
KFIT 260252Z AUTO 00000KT 6SM BR OVC006 16/15 A3016 RMK AO2 SLP215 60003 T01560150 58021
KFIT 260233Z AUTO 00000KT 7SM BKN008 BKN012 OVC065 16/15 A3017 RMK AO2 T01560150
KFIT 260211Z AUTO 00000KT 8SM FEW005 BKN026 OVC060 16/15 A3018 RMK AO2 T01560150
KFIT 260152Z AUTO 00000KT 10SM BKN006 BKN016 OVC050 16/15 A3019 RMK AO2 RAE28 SLP223 P0002 T01560150
KFIT 260122Z AUTO 00000KT 3SM -RA BR BKN007 OVC014 15/15 A3020 RMK AO2 P0002 T01500150
KFIT 260114Z AUTO 32003KT 2 1/2SM -RA BR SCT008 BKN023 OVC036 15/15 A3020 RMK AO2 P0002 T01500150
KFIT 260102Z AUTO 00000KT 4SM -RA BR BKN008 BKN033 OVC048 15/15 A3021 RMK AO2 P0001 T01500150
KFIT 260052Z AUTO 00000KT 5SM -RA BR FEW009 BKN038 OVC055 15/14 A3021 RMK AO2 SLP231 P0001 T01500144
KFIT 260039Z AUTO 00000KT 7SM -RA SCT009 BKN020 OVC055 15/15 A3021 RMK AO2 P0001 T01500150
KFIT 260032Z AUTO 00000KT 5SM -RA BR SCT007 BKN013 OVC040 15/15 A3021 RMK AO2 P0001 T01500150
KFIT 260010Z AUTO 00000KT 5SM -RA BR OVC007 15/15 A3023 RMK AO2 P0001 T01500150
KFIT 252352Z AUTO 00000KT 4SM -RA BR OVC005 15/15 A3023 RMK AO2 RAE01B07 SLP236 P0000 60105 T01500150 10150 20122 56011
KFIT 252317Z AUTO 35003KT 7SM -RA BKN005 OVC011 15/14 A3023 RMK AO2 RAE01B07 P0000 T01500144
KFIT 252304Z AUTO 00000KT 10SM SCT006 OVC011 15/15 A3024 RMK AO2 RAE01 P0000 T01500150
KFIT 252252Z AUTO 00000KT 8SM -RA OVC011 15/14 A3023 RMK AO2 SLP240 P0015 T01500144
KFIT 252248Z AUTO 00000KT 6SM -RA BR OVC011 15/14 A3024 RMK AO2 P0015
KFIT 252232Z AUTO 00000KT 2SM RA BR OVC013 15/14 A3025 RMK AO2 P0013 T01500144
KFIT 252221Z AUTO 00000KT 4SM -RA BR OVC013 15/14 A3025 RMK AO2 P0011 T01500144
KFIT 252212Z AUTO 00000KT 2SM RA BR OVC013 15/14 A3025 RMK AO2 P0010 T01500144
KFIT 252201Z AUTO 00000KT 1SM +RA BR FEW005 OVC011 15/14 A3026 RMK AO2 P0007 T01500144
KFIT 252152Z AUTO 00000KT 1 3/4SM +RA BR SCT005 OVC009 15/14 A3026 RMK AO2 SLP248 P0013 T01500144
KFIT 252143Z AUTO 00000KT 2 1/2SM RA BR OVC007 15/14 A3026 RMK AO2 P0010 T01500144
KFIT 252128Z AUTO 00000KT 3SM RA BR BKN005 OVC011 15/14 A3027 RMK AO2 P0006 T01500144
KFIT 252125Z AUTO 00000KT 3SM RA BR SCT007 OVC010 14/14 A3027 RMK AO2 P0006 T01440144
KFIT 252115Z AUTO 00000KT 6SM -RA BR OVC013 15/14 A3027 RMK AO2 P0004 T01500144
KFIT 252052Z AUTO 00000KT 2 1/2SM RA BR FEW005 OVC014 14/14 A3029 RMK AO2 SLP258 P0017 60077 T01440144 56037
KFIT 252041Z AUTO 00000KT 1SM +RA BR SCT007 OVC010 14/14 A3030 RMK AO2 P0015 T01440144
KFIT 252038Z AUTO 00000KT 1 3/4SM +RA BR OVC007 14/14 A3030 RMK AO2 P0012 T01440144
KFIT 252020Z AUTO 00000KT 3SM RA BR BKN008 OVC014 14/14 A3030 RMK AO2 P0006 T01440144
KFIT 252009Z AUTO 12003KT 3SM RA BR OVC013 14/14 A3030 RMK AO2 P0004 T01440139
KFIT 251957Z AUTO 08003KT 2SM +RA BR FEW007 OVC012 14/14 A3031 RMK AO2 P0002 T01440139
KFIT 251952Z AUTO 00000KT 1SM +RA BR SCT007 OVC012 14/14 A3032 RMK AO2 SLP269 P0036 T01440139
KFIT 251914Z AUTO 28004KT 1 1/4SM +RA BR BKN008 OVC012 13/13 A3035 RMK AO2 P0017 T01330133
KFIT 251904Z AUTO 00000KT 3/4SM +RA BR OVC012 13/13 A3035 RMK AO2 P0012 T01330128
KFIT 251852Z AUTO 00000KT 1 1/2SM +RA BR OVC010 13/13 A3036 RMK AO2 SLP282 P0024 T01330133
KFIT 251847Z AUTO 00000KT 1 3/4SM +RA BR BKN007 OVC012 13/13 A3036 RMK AO2 P0021
KFIT 251836Z AUTO 00000KT 2SM RA BR SCT005 BKN010 OVC014 13/13 A3036 RMK AO2 P0017 T01330128
KFIT 251825Z AUTO 00000KT 1SM +RA BR OVC005 13/12 A3037 RMK AO2 P0012 T01280122
KFIT 251805Z AUTO 00000KT 2 1/2SM RA BR BKN005 OVC009 12/12 A3039 RMK AO2 P0002 T01220122
KFIT 251752Z AUTO VRB03KT 3SM -RA BR OVC006 13/12 A3040 RMK AO2 SLP295 P0008 60030 T01280117 10128 20083 58029
KFIT 251741Z AUTO 00000KT 2 1/2SM -RA BR BKN006 OVC013 12/12 A3040 RMK AO2 PRESFR P0007 T01220117
KFIT 251724Z AUTO 00000KT 4SM -RA BR OVC006 12/11 A3042 RMK AO2 P0005 T01170111
KFIT 251652Z AUTO 34003KT 3SM RA BR OVC005 11/11 A3045 RMK AO2 SLP312 P0009 T01110106
KFIT 251650Z AUTO 33003KT 3SM RA BR OVC005 11/11 A3045 RMK AO2 P0009
KFIT 251639Z AUTO 00000KT 4SM RA BR OVC004 11/11 A3045 RMK AO2 P0006 T01110106
KFIT 251552Z AUTO 00000KT 6SM -RA BR BKN007 BKN012 OVC020 11/09 A3048 RMK AO2 CIG 005V011 SLP325 P0006 T01060094
KFIT 251525Z AUTO 34003KT 5SM -RA BR BKN008 BKN023 OVC080 11/09 A3049 RMK AO2 P0004 T01060094
KFIT 251517Z AUTO 00000KT 4SM -RA BR FEW006 BKN055 OVC085 11/09 A3050 RMK AO2 P0003 T01060089
KFIT 251452Z AUTO 00000KT 9SM -RA FEW060 FEW070 OVC090 10/08 A3051 RMK AO2 SLP334 P0002 60007 T01000083 58010
KFIT 251352Z AUTO 00000KT 8SM -RA FEW020 BKN090 OVC100 09/08 A3053 RMK AO2 SLP340 P0003 T00940078
KFIT 251252Z AUTO 32004KT 8SM -RA OVC100 08/07 A3054 RMK AO2 RAB01 SLP344 P0002 T00830067
KFIT 251152Z AUTO 00000KT 10SM SCT046 SCT070 OVC100 09/06 A3054 RMK AO2 RAB35E44 SLP344 P0000 60000 T00890056 10089 20056 58008
KFIT 251128Z AUTO 00000KT 10SM SCT024 BKN046 BKN075 09/05 A3054 RMK AO2 T00890050
KFIT 251052Z AUTO 00000KT 10SM BKN027 BKN085 OVC110 08/05 A3056 RMK AO2 SLP350 T00830050
KFIT 250952Z AUTO 00000KT 10SM OVC026 08/05 A3056 RMK AO2 SLP351 T00780050
KFIT 250923Z AUTO 33003KT 10SM BKN028 OVC041 07/05 A3056 RMK AO2 T00720050
KFIT 250852Z AUTO 32003KT 10SM FEW040 07/05 A3056 RMK AO2 SLP352 T00670050 56013
KFIT 250752Z AUTO 34003KT 10SM CLR 07/05 A3057 RMK AO2 SLP355 T00670050
KFIT 250652Z AUTO 34003KT 10SM CLR 06/04 A3059 RMK AO2 SLP362 T00610044
KFIT 250552Z AUTO 32004KT 10SM CLR 07/04 A3060 RMK AO2 SLP365 T00670044 10100 20061 58012
KFIT 250452Z AUTO 31005KT 10SM CLR 07/04 A3062 RMK AO2 SLP371 T00670044 401220061
KFIT 250352Z AUTO 32005KT 10SM CLR 07/04 A3064 RMK AO2 SLP377 T00720044
KFIT 250252Z AUTO 03003KT 10SM SCT030 09/04 A3064 RMK AO2 SLP377 T00890044 51008
KFIT 250239Z AUTO 06003KT 10SM OVC030 09/04 A3064 RMK AO2 T00940044
KFIT 250152Z AUTO 05003KT 10SM OVC029 09/05 A3064 RMK AO2 SLP377 T00940050
KFIT 250052Z AUTO VRB03KT 10SM OVC028 10/05 A3063 RMK AO2 SLP375 T01000050
KFIT 250001Z AUTO 05003KT 10SM OVC029 10/06 A3062 RMK AO2 T01000056
KFIT 242352Z AUTO 08004KT 10SM OVC030 10/06 A3061 RMK AO2 SLP369 T01000056 10122 20100 53007
KFIT 242252Z AUTO 08005KT 10SM OVC032 11/06 A3060 RMK AO2 SLP363 T01060056
KFIT 242152Z AUTO 11005KT 10SM OVC034 12/05 A3060 RMK AO2 SLP363 T01170050
KFIT 242052Z AUTO 10004KT 10SM OVC034 12/05 A3059 RMK AO2 SLP361 T01220050 58003
KFIT 241952Z AUTO 07005KT 10SM OVC033 12/05 A3059 RMK AO2 SLP361 T01220050
KFIT 241852Z AUTO 10006KT 10SM OVC031 12/05 A3061 RMK AO2 SLP367 T01170050
KFIT 241752Z AUTO 12007KT 10SM OVC031 12/05 A3060 RMK AO2 SLP365 T01220050 10122 20100 58003